sensor_id;sensor_type;location;lat;lon;timestamp;P1;durP1;ratioP1;P2;durP2;ratioP2
31872;SDS011;22407;42.820;23.374;2023-02-15T00:01:06;43.37;;;17.30;;
31872;SDS011;22407;42.820;23.374;2023-02-15T00:03:32;42.42;;;17.40;;
31872;SDS011;22407;42.820;23.374;2023-02-15T00:05:57;43.30;;;17.53;;
31872;SDS011;22407;42.820;23.374;2023-02-15T00:08:23;43.30;;;17.33;;
31872;SDS011;22407;42.820;23.374;2023-02-15T00:10:48;40.23;;;16.70;;
31872;SDS011;22407;42.820;23.374;2023-02-15T00:13:13;40.80;;;16.83;;
31872;SDS011;22407;42.820;23.374;2023-02-15T00:15:39;41.33;;;16.60;;
31872;SDS011;22407;42.820;23.374;2023-02-15T00:18:04;39.93;;;16.63;;
31872;SDS011;22407;42.820;23.374;2023-02-15T00:20:29;40.70;;;16.03;;
31872;SDS011;22407;42.820;23.374;2023-02-15T00:22:54;38.10;;;16.30;;
31872;SDS011;22407;42.820;23.374;2023-02-15T00:25:19;44.00;;;16.13;;
31872;SDS011;22407;42.820;23.374;2023-02-15T00:27:45;46.87;;;18.03;;
31872;SDS011;22407;42.820;23.374;2023-02-15T00:30:10;45.43;;;17.47;;
31872;SDS011;22407;42.820;23.374;2023-02-15T00:32:36;42.60;;;16.47;;
31872;SDS011;22407;42.820;23.374;2023-02-15T00:35:01;41.37;;;16.37;;
31872;SDS011;22407;42.820;23.374;2023-02-15T00:37:26;44.43;;;17.33;;
31872;SDS011;22407;42.820;23.374;2023-02-15T00:39:51;44.90;;;17.00;;
31872;SDS011;22407;42.820;23.374;2023-02-15T00:42:17;48.23;;;17.93;;
31872;SDS011;22407;42.820;23.374;2023-02-15T00:44:42;46.50;;;18.37;;
31872;SDS011;22407;42.820;23.374;2023-02-15T00:47:07;54.17;;;20.57;;
31872;SDS011;22407;42.820;23.374;2023-02-15T00:49:32;53.63;;;18.97;;
31872;SDS011;22407;42.820;23.374;2023-02-15T00:51:58;51.80;;;20.37;;
31872;SDS011;22407;42.820;23.374;2023-02-15T00:54:23;49.90;;;19.20;;
31872;SDS011;22407;42.820;23.374;2023-02-15T00:56:48;49.63;;;19.03;;
31872;SDS011;22407;42.820;23.374;2023-02-15T00:59:16;49.22;;;18.55;;
31872;SDS011;22407;42.820;23.374;2023-02-15T01:01:42;43.63;;;17.50;;
31872;SDS011;22407;42.820;23.374;2023-02-15T01:04:07;44.23;;;18.03;;
31872;SDS011;22407;42.820;23.374;2023-02-15T01:06:32;46.87;;;18.17;;
31872;SDS011;22407;42.820;23.374;2023-02-15T01:08:57;42.83;;;17.83;;
31872;SDS011;22407;42.820;23.374;2023-02-15T01:11:23;48.40;;;17.60;;
31872;SDS011;22407;42.820;23.374;2023-02-15T01:13:51;46.63;;;18.60;;
31872;SDS011;22407;42.820;23.374;2023-02-15T01:16:17;50.05;;;18.88;;
31872;SDS011;22407;42.820;23.374;2023-02-15T01:18:42;50.47;;;18.10;;
31872;SDS011;22407;42.820;23.374;2023-02-15T01:21:09;46.70;;;17.97;;
31872;SDS011;22407;42.820;23.374;2023-02-15T01:23:34;49.08;;;17.65;;
31872;SDS011;22407;42.820;23.374;2023-02-15T01:26:02;46.07;;;17.20;;
31872;SDS011;22407;42.820;23.374;2023-02-15T01:28:28;48.95;;;17.90;;
31872;SDS011;22407;42.820;23.374;2023-02-15T01:30:53;48.23;;;19.17;;
31872;SDS011;22407;42.820;23.374;2023-02-15T01:33:18;50.53;;;18.07;;
31872;SDS011;22407;42.820;23.374;2023-02-15T01:35:47;46.73;;;17.70;;
31872;SDS011;22407;42.820;23.374;2023-02-15T01:38:15;47.78;;;18.48;;
31872;SDS011;22407;42.820;23.374;2023-02-15T01:40:40;49.53;;;17.38;;
31872;SDS011;22407;42.820;23.374;2023-02-15T01:43:09;50.17;;;18.30;;
31872;SDS011;22407;42.820;23.374;2023-02-15T01:45:34;49.55;;;19.15;;
31872;SDS011;22407;42.820;23.374;2023-02-15T01:48:04;48.63;;;19.23;;
31872;SDS011;22407;42.820;23.374;2023-02-15T01:50:34;51.25;;;19.27;;
31872;SDS011;22407;42.820;23.374;2023-02-15T01:53:16;46.93;;;16.97;;
31872;SDS011;22407;42.820;23.374;2023-02-15T01:55:47;48.00;;;16.75;;
31872;SDS011;22407;42.820;23.374;2023-02-15T01:58:13;45.97;;;16.80;;
31872;SDS011;22407;42.820;23.374;2023-02-15T02:00:39;44.67;;;15.45;;
31872;SDS011;22407;42.820;23.374;2023-02-15T02:03:05;48.80;;;17.40;;
31872;SDS011;22407;42.820;23.374;2023-02-15T02:05:30;45.03;;;16.60;;
31872;SDS011;22407;42.820;23.374;2023-02-15T02:07:57;44.27;;;15.73;;
31872;SDS011;22407;42.820;23.374;2023-02-15T02:10:23;44.47;;;15.88;;
31872;SDS011;22407;42.820;23.374;2023-02-15T02:12:50;54.25;;;18.70;;
31872;SDS011;22407;42.820;23.374;2023-02-15T02:15:16;50.77;;;16.73;;
31872;SDS011;22407;42.820;23.374;2023-02-15T02:20:17;49.03;;;17.35;;
31872;SDS011;22407;42.820;23.374;2023-02-15T02:23:01;47.40;;;17.60;;
31872;SDS011;22407;42.820;23.374;2023-02-15T02:30:59;43.47;;;16.65;;
31872;SDS011;22407;42.820;23.374;2023-02-15T02:36:07;48.25;;;18.42;;
31872;SDS011;22407;42.820;23.374;2023-02-15T02:41:21;48.97;;;17.10;;
31872;SDS011;22407;42.820;23.374;2023-02-15T02:44:04;48.15;;;16.33;;
31872;SDS011;22407;42.820;23.374;2023-02-15T02:46:33;48.83;;;16.80;;
31872;SDS011;22407;42.820;23.374;2023-02-15T02:49:00;49.50;;;17.55;;
31872;SDS011;22407;42.820;23.374;2023-02-15T02:51:26;42.70;;;16.27;;
31872;SDS011;22407;42.820;23.374;2023-02-15T02:53:52;53.43;;;17.50;;
31872;SDS011;22407;42.820;23.374;2023-02-15T02:56:23;48.85;;;17.85;;
31872;SDS011;22407;42.820;23.374;2023-02-15T02:58:54;48.28;;;17.00;;
31872;SDS011;22407;42.820;23.374;2023-02-15T03:01:22;48.47;;;17.38;;
31872;SDS011;22407;42.820;23.374;2023-02-15T03:03:49;52.08;;;17.70;;
31872;SDS011;22407;42.820;23.374;2023-02-15T03:06:17;47.33;;;17.23;;
31872;SDS011;22407;42.820;23.374;2023-02-15T03:08:44;46.90;;;16.13;;
31872;SDS011;22407;42.820;23.374;2023-02-15T03:11:12;47.63;;;16.30;;
31872;SDS011;22407;42.820;23.374;2023-02-15T03:13:37;47.07;;;16.70;;
31872;SDS011;22407;42.820;23.374;2023-02-15T03:16:04;43.20;;;16.52;;
31872;SDS011;22407;42.820;23.374;2023-02-15T03:18:48;49.33;;;16.73;;
31872;SDS011;22407;42.820;23.374;2023-02-15T03:21:23;48.60;;;17.02;;
31872;SDS011;22407;42.820;23.374;2023-02-15T03:23:59;43.87;;;15.07;;
31872;SDS011;22407;42.820;23.374;2023-02-15T03:26:25;47.03;;;17.63;;
31872;SDS011;22407;42.820;23.374;2023-02-15T03:28:53;53.10;;;18.02;;
31872;SDS011;22407;42.820;23.374;2023-02-15T03:31:20;43.70;;;15.75;;
31872;SDS011;22407;42.820;23.374;2023-02-15T03:33:50;46.42;;;16.33;;
31872;SDS011;22407;42.820;23.374;2023-02-15T03:39:13;48.58;;;17.42;;
31872;SDS011;22407;42.820;23.374;2023-02-15T03:41:42;49.47;;;17.35;;
31872;SDS011;22407;42.820;23.374;2023-02-15T03:44:23;53.42;;;17.92;;
31872;SDS011;22407;42.820;23.374;2023-02-15T03:46:52;47.85;;;19.95;;
31872;SDS011;22407;42.820;23.374;2023-02-15T03:49:26;48.67;;;17.87;;
31872;SDS011;22407;42.820;23.374;2023-02-15T03:51:53;51.90;;;19.10;;
31872;SDS011;22407;42.820;23.374;2023-02-15T03:54:24;58.80;;;21.05;;
31872;SDS011;22407;42.820;23.374;2023-02-15T03:57:22;47.05;;;17.27;;
31872;SDS011;22407;42.820;23.374;2023-02-15T04:00:09;48.78;;;17.52;;
31872;SDS011;22407;42.820;23.374;2023-02-15T04:05:25;50.10;;;17.92;;
31872;SDS011;22407;42.820;23.374;2023-02-15T04:07:51;51.50;;;18.17;;
31872;SDS011;22407;42.820;23.374;2023-02-15T04:10:16;48.67;;;17.20;;
31872;SDS011;22407;42.820;23.374;2023-02-15T04:13:00;47.13;;;17.50;;
31872;SDS011;22407;42.820;23.374;2023-02-15T04:15:25;47.17;;;17.30;;
31872;SDS011;22407;42.820;23.374;2023-02-15T04:18:09;46.53;;;18.08;;
31872;SDS011;22407;42.820;23.374;2023-02-15T04:20:34;47.67;;;16.57;;
31872;SDS011;22407;42.820;23.374;2023-02-15T04:23:18;41.15;;;15.45;;
31872;SDS011;22407;42.820;23.374;2023-02-15T04:26:05;42.67;;;15.90;;
31872;SDS011;22407;42.820;23.374;2023-02-15T04:28:30;46.07;;;17.07;;
31872;SDS011;22407;42.820;23.374;2023-02-15T04:30:55;50.17;;;17.70;;
31872;SDS011;22407;42.820;23.374;2023-02-15T04:33:21;48.87;;;18.93;;
31872;SDS011;22407;42.820;23.374;2023-02-15T04:35:46;44.50;;;17.30;;
31872;SDS011;22407;42.820;23.374;2023-02-15T04:38:11;48.40;;;17.73;;
31872;SDS011;22407;42.820;23.374;2023-02-15T04:40:36;51.23;;;18.47;;
31872;SDS011;22407;42.820;23.374;2023-02-15T04:43:02;53.43;;;19.83;;
31872;SDS011;22407;42.820;23.374;2023-02-15T04:45:27;90.07;;;31.23;;
31872;SDS011;22407;42.820;23.374;2023-02-15T04:47:52;48.47;;;18.03;;
31872;SDS011;22407;42.820;23.374;2023-02-15T04:50:18;53.90;;;19.57;;
31872;SDS011;22407;42.820;23.374;2023-02-15T04:52:43;57.23;;;22.97;;
31872;SDS011;22407;42.820;23.374;2023-02-15T04:55:08;49.77;;;20.90;;
31872;SDS011;22407;42.820;23.374;2023-02-15T04:57:33;46.85;;;18.45;;
31872;SDS011;22407;42.820;23.374;2023-02-15T04:59:59;50.43;;;20.37;;
31872;SDS011;22407;42.820;23.374;2023-02-15T05:02:24;44.47;;;16.57;;
31872;SDS011;22407;42.820;23.374;2023-02-15T05:04:49;46.43;;;17.23;;
31872;SDS011;22407;42.820;23.374;2023-02-15T05:07:15;48.20;;;17.63;;
31872;SDS011;22407;42.820;23.374;2023-02-15T05:09:40;45.47;;;16.13;;
31872;SDS011;22407;42.820;23.374;2023-02-15T05:12:06;52.90;;;19.17;;
31872;SDS011;22407;42.820;23.374;2023-02-15T05:14:31;58.00;;;20.00;;
31872;SDS011;22407;42.820;23.374;2023-02-15T05:16:56;75.07;;;26.80;;
31872;SDS011;22407;42.820;23.374;2023-02-15T05:19:23;66.53;;;22.87;;
31872;SDS011;22407;42.820;23.374;2023-02-15T05:21:49;63.10;;;22.90;;
31872;SDS011;22407;42.820;23.374;2023-02-15T05:24:15;51.90;;;17.37;;
31872;SDS011;22407;42.820;23.374;2023-02-15T05:26:58;52.53;;;19.60;;
31872;SDS011;22407;42.820;23.374;2023-02-15T05:29:42;46.05;;;16.55;;
31872;SDS011;22407;42.820;23.374;2023-02-15T05:32:08;58.73;;;19.33;;
31872;SDS011;22407;42.820;23.374;2023-02-15T05:34:33;51.88;;;17.00;;
31872;SDS011;22407;42.820;23.374;2023-02-15T05:36:58;52.60;;;17.10;;
31872;SDS011;22407;42.820;23.374;2023-02-15T05:39:24;47.03;;;17.77;;
31872;SDS011;22407;42.820;23.374;2023-02-15T05:41:49;53.27;;;21.87;;
31872;SDS011;22407;42.820;23.374;2023-02-15T05:44:14;64.13;;;23.10;;
31872;SDS011;22407;42.820;23.374;2023-02-15T05:46:40;65.33;;;23.10;;
31872;SDS011;22407;42.820;23.374;2023-02-15T05:49:05;65.50;;;23.50;;
31872;SDS011;22407;42.820;23.374;2023-02-15T05:51:31;60.15;;;20.98;;
31872;SDS011;22407;42.820;23.374;2023-02-15T05:53:56;59.17;;;21.67;;
31872;SDS011;22407;42.820;23.374;2023-02-15T05:56:21;67.50;;;25.13;;
31872;SDS011;22407;42.820;23.374;2023-02-15T05:58:47;64.87;;;24.17;;
31872;SDS011;22407;42.820;23.374;2023-02-15T06:01:16;77.38;;;35.28;;
31872;SDS011;22407;42.820;23.374;2023-02-15T06:03:42;67.37;;;27.47;;
31872;SDS011;22407;42.820;23.374;2023-02-15T06:06:08;69.90;;;27.63;;
31872;SDS011;22407;42.820;23.374;2023-02-15T06:08:33;69.53;;;26.57;;
31872;SDS011;22407;42.820;23.374;2023-02-15T06:10:59;76.90;;;31.92;;
31872;SDS011;22407;42.820;23.374;2023-02-15T06:13:24;71.70;;;28.90;;
31872;SDS011;22407;42.820;23.374;2023-02-15T06:15:49;73.00;;;27.33;;
31872;SDS011;22407;42.820;23.374;2023-02-15T06:18:14;58.53;;;23.10;;
31872;SDS011;22407;42.820;23.374;2023-02-15T06:20:40;57.30;;;22.13;;
31872;SDS011;22407;42.820;23.374;2023-02-15T06:23:05;60.80;;;22.37;;
31872;SDS011;22407;42.820;23.374;2023-02-15T06:25:30;62.40;;;22.30;;
31872;SDS011;22407;42.820;23.374;2023-02-15T06:27:56;74.93;;;29.87;;
31872;SDS011;22407;42.820;23.374;2023-02-15T06:30:21;87.55;;;36.03;;
31872;SDS011;22407;42.820;23.374;2023-02-15T06:32:46;83.10;;;32.93;;
31872;SDS011;22407;42.820;23.374;2023-02-15T06:35:12;83.83;;;34.90;;
31872;SDS011;22407;42.820;23.374;2023-02-15T06:37:38;92.50;;;39.43;;
31872;SDS011;22407;42.820;23.374;2023-02-15T06:40:03;89.05;;;35.35;;
31872;SDS011;22407;42.820;23.374;2023-02-15T06:42:29;77.37;;;33.77;;
31872;SDS011;22407;42.820;23.374;2023-02-15T06:44:54;95.22;;;43.22;;
31872;SDS011;22407;42.820;23.374;2023-02-15T06:47:20;89.47;;;37.77;;
31872;SDS011;22407;42.820;23.374;2023-02-15T06:49:45;105.00;;;42.73;;
31872;SDS011;22407;42.820;23.374;2023-02-15T06:52:10;109.00;;;44.77;;
31872;SDS011;22407;42.820;23.374;2023-02-15T06:54:36;140.50;;;60.27;;
31872;SDS011;22407;42.820;23.374;2023-02-15T06:57:01;157.20;;;60.63;;
31872;SDS011;22407;42.820;23.374;2023-02-15T06:59:26;135.83;;;52.07;;
31872;SDS011;22407;42.820;23.374;2023-02-15T07:01:51;112.17;;;42.37;;
31872;SDS011;22407;42.820;23.374;2023-02-15T07:04:17;115.77;;;38.53;;
31872;SDS011;22407;42.820;23.374;2023-02-15T07:06:42;95.13;;;35.85;;
31872;SDS011;22407;42.820;23.374;2023-02-15T07:09:08;76.37;;;27.10;;
31872;SDS011;22407;42.820;23.374;2023-02-15T07:11:33;68.20;;;24.70;;
31872;SDS011;22407;42.820;23.374;2023-02-15T07:14:17;123.80;;;40.78;;
31872;SDS011;22407;42.820;23.374;2023-02-15T07:16:42;203.10;;;55.37;;
31872;SDS011;22407;42.820;23.374;2023-02-15T07:19:08;397.03;;;111.03;;
31872;SDS011;22407;42.820;23.374;2023-02-15T07:21:34;386.87;;;108.93;;
31872;SDS011;22407;42.820;23.374;2023-02-15T07:23:59;280.92;;;70.72;;
31872;SDS011;22407;42.820;23.374;2023-02-15T07:26:24;235.43;;;63.77;;
31872;SDS011;22407;42.820;23.374;2023-02-15T07:28:50;111.35;;;34.47;;
31872;SDS011;22407;42.820;23.374;2023-02-15T07:31:15;118.43;;;38.10;;
31872;SDS011;22407;42.820;23.374;2023-02-15T07:33:40;102.63;;;34.23;;
31872;SDS011;22407;42.820;23.374;2023-02-15T07:36:06;74.10;;;28.70;;
31872;SDS011;22407;42.820;23.374;2023-02-15T07:38:33;70.30;;;25.73;;
31872;SDS011;22407;42.820;23.374;2023-02-15T07:41:02;67.15;;;26.48;;
31872;SDS011;22407;42.820;23.374;2023-02-15T07:43:28;61.67;;;21.27;;
31872;SDS011;22407;42.820;23.374;2023-02-15T07:45:54;64.72;;;21.70;;
31872;SDS011;22407;42.820;23.374;2023-02-15T07:48:19;67.03;;;24.87;;
31872;SDS011;22407;42.820;23.374;2023-02-15T07:50:45;64.63;;;22.10;;
31872;SDS011;22407;42.820;23.374;2023-02-15T07:53:10;60.80;;;21.50;;
31872;SDS011;22407;42.820;23.374;2023-02-15T07:55:35;48.30;;;17.93;;
31872;SDS011;22407;42.820;23.374;2023-02-15T07:58:01;63.73;;;25.33;;
31872;SDS011;22407;42.820;23.374;2023-02-15T08:00:26;56.10;;;20.10;;
31872;SDS011;22407;42.820;23.374;2023-02-15T08:02:52;40.07;;;15.17;;
31872;SDS011;22407;42.820;23.374;2023-02-15T08:05:41;32.45;;;12.05;;
31872;SDS011;22407;42.820;23.374;2023-02-15T08:08:07;32.47;;;11.38;;
31872;SDS011;22407;42.820;23.374;2023-02-15T08:10:33;27.50;;;11.33;;
31872;SDS011;22407;42.820;23.374;2023-02-15T08:13:17;35.10;;;12.18;;
31872;SDS011;22407;42.820;23.374;2023-02-15T08:15:49;34.57;;;11.47;;
31872;SDS011;22407;42.820;23.374;2023-02-15T08:18:14;26.85;;;9.95;;
31872;SDS011;22407;42.820;23.374;2023-02-15T08:20:40;30.77;;;11.60;;
31872;SDS011;22407;42.820;23.374;2023-02-15T08:23:05;26.07;;;10.13;;
31872;SDS011;22407;42.820;23.374;2023-02-15T08:25:30;23.90;;;9.63;;
31872;SDS011;22407;42.820;23.374;2023-02-15T08:27:56;20.80;;;8.90;;
31872;SDS011;22407;42.820;23.374;2023-02-15T08:30:21;19.63;;;7.90;;
31872;SDS011;22407;42.820;23.374;2023-02-15T08:32:46;19.87;;;7.90;;
31872;SDS011;22407;42.820;23.374;2023-02-15T08:35:11;20.00;;;7.40;;
31872;SDS011;22407;42.820;23.374;2023-02-15T08:37:37;22.30;;;8.20;;
31872;SDS011;22407;42.820;23.374;2023-02-15T08:40:02;21.13;;;8.27;;
31872;SDS011;22407;42.820;23.374;2023-02-15T08:42:27;24.30;;;9.53;;
31872;SDS011;22407;42.820;23.374;2023-02-15T08:44:53;20.80;;;8.43;;
31872;SDS011;22407;42.820;23.374;2023-02-15T08:47:18;21.15;;;9.05;;
31872;SDS011;22407;42.820;23.374;2023-02-15T08:49:43;22.37;;;8.83;;
31872;SDS011;22407;42.820;23.374;2023-02-15T08:52:08;25.80;;;8.80;;
31872;SDS011;22407;42.820;23.374;2023-02-15T08:54:34;22.77;;;8.20;;
31872;SDS011;22407;42.820;23.374;2023-02-15T08:56:59;22.60;;;9.27;;
31872;SDS011;22407;42.820;23.374;2023-02-15T08:59:25;23.07;;;9.40;;
31872;SDS011;22407;42.820;23.374;2023-02-15T09:01:52;19.52;;;8.43;;
31872;SDS011;22407;42.820;23.374;2023-02-15T09:04:17;22.40;;;9.40;;
31872;SDS011;22407;42.820;23.374;2023-02-15T09:06:43;18.48;;;8.35;;
31872;SDS011;22407;42.820;23.374;2023-02-15T09:09:09;26.77;;;9.77;;
31872;SDS011;22407;42.820;23.374;2023-02-15T09:11:36;23.40;;;8.60;;
31872;SDS011;22407;42.820;23.374;2023-02-15T09:14:03;19.73;;;8.25;;
31872;SDS011;22407;42.820;23.374;2023-02-15T09:16:30;20.70;;;8.15;;
31872;SDS011;22407;42.820;23.374;2023-02-15T09:18:56;34.40;;;12.32;;
31872;SDS011;22407;42.820;23.374;2023-02-15T09:21:24;23.40;;;9.07;;
31872;SDS011;22407;42.820;23.374;2023-02-15T09:23:50;23.80;;;9.80;;
31872;SDS011;22407;42.820;23.374;2023-02-15T09:26:17;23.27;;;9.27;;
31872;SDS011;22407;42.820;23.374;2023-02-15T09:28:42;26.30;;;8.05;;
31872;SDS011;22407;42.820;23.374;2023-02-15T09:31:11;19.90;;;7.77;;
31872;SDS011;22407;42.820;23.374;2023-02-15T09:33:37;24.23;;;8.70;;
31872;SDS011;22407;42.820;23.374;2023-02-15T09:36:03;20.13;;;7.70;;
31872;SDS011;22407;42.820;23.374;2023-02-15T09:38:28;20.52;;;9.40;;
31872;SDS011;22407;42.820;23.374;2023-02-15T09:41:20;22.60;;;8.87;;
31872;SDS011;22407;42.820;23.374;2023-02-15T09:43:46;25.10;;;11.55;;
31872;SDS011;22407;42.820;23.374;2023-02-15T09:46:25;22.08;;;8.60;;
31872;SDS011;22407;42.820;23.374;2023-02-15T09:48:53;19.77;;;7.80;;
31872;SDS011;22407;42.820;23.374;2023-02-15T09:51:38;28.77;;;11.87;;
31872;SDS011;22407;42.820;23.374;2023-02-15T09:54:17;23.02;;;9.30;;
31872;SDS011;22407;42.820;23.374;2023-02-15T09:59:12;23.20;;;8.90;;
31872;SDS011;22407;42.820;23.374;2023-02-15T10:04:27;22.05;;;9.40;;
31872;SDS011;22407;42.820;23.374;2023-02-15T10:14:57;20.40;;;8.10;;
31872;SDS011;22407;42.820;23.374;2023-02-15T10:22:32;19.02;;;7.80;;
31872;SDS011;22407;42.820;23.374;2023-02-15T10:27:44;17.70;;;7.47;;
31872;SDS011;22407;42.820;23.374;2023-02-15T10:33:20;18.03;;;7.83;;
31872;SDS011;22407;42.820;23.374;2023-02-15T10:37:59;43.40;;;16.60;;
31872;SDS011;22407;42.820;23.374;2023-02-15T10:40:33;18.25;;;8.27;;
31872;SDS011;22407;42.820;23.374;2023-02-15T10:45:49;20.67;;;8.20;;
31872;SDS011;22407;42.820;23.374;2023-02-15T10:50:46;22.85;;;9.02;;
31872;SDS011;22407;42.820;23.374;2023-02-15T10:55:44;20.65;;;8.60;;
31872;SDS011;22407;42.820;23.374;2023-02-15T11:00:46;20.38;;;8.82;;
31872;SDS011;22407;42.820;23.374;2023-02-15T11:08:14;17.58;;;7.53;;
31872;SDS011;22407;42.820;23.374;2023-02-15T11:10:50;22.27;;;9.25;;
31872;SDS011;22407;42.820;23.374;2023-02-15T11:13:17;17.77;;;8.07;;
31872;SDS011;22407;42.820;23.374;2023-02-15T11:15:57;18.27;;;8.55;;
31872;SDS011;22407;42.820;23.374;2023-02-15T11:21:04;19.73;;;8.93;;
31872;SDS011;22407;42.820;23.374;2023-02-15T11:23:30;21.45;;;9.00;;
31872;SDS011;22407;42.820;23.374;2023-02-15T11:25:58;22.87;;;9.10;;
31872;SDS011;22407;42.820;23.374;2023-02-15T11:28:27;20.58;;;9.45;;
31872;SDS011;22407;42.820;23.374;2023-02-15T11:30:55;24.63;;;10.88;;
31872;SDS011;22407;42.820;23.374;2023-02-15T11:33:22;21.30;;;8.45;;
31872;SDS011;22407;42.820;23.374;2023-02-15T11:36:00;17.73;;;7.97;;
31872;SDS011;22407;42.820;23.374;2023-02-15T11:38:31;23.73;;;8.97;;
31872;SDS011;22407;42.820;23.374;2023-02-15T11:41:05;25.77;;;8.50;;
31872;SDS011;22407;42.820;23.374;2023-02-15T11:43:39;26.75;;;10.00;;
31872;SDS011;22407;42.820;23.374;2023-02-15T11:46:07;22.08;;;8.88;;
31872;SDS011;22407;42.820;23.374;2023-02-15T11:48:33;29.77;;;10.63;;
31872;SDS011;22407;42.820;23.374;2023-02-15T11:50:58;32.77;;;11.43;;
31872;SDS011;22407;42.820;23.374;2023-02-15T11:53:24;21.95;;;9.88;;
31872;SDS011;22407;42.820;23.374;2023-02-15T11:55:55;21.97;;;8.23;;
31872;SDS011;22407;42.820;23.374;2023-02-15T12:00:54;23.60;;;10.23;;
31872;SDS011;22407;42.820;23.374;2023-02-15T12:03:28;25.40;;;10.13;;
31872;SDS011;22407;42.820;23.374;2023-02-15T12:06:00;22.65;;;9.63;;
31872;SDS011;22407;42.820;23.374;2023-02-15T12:08:26;25.48;;;10.90;;
31872;SDS011;22407;42.820;23.374;2023-02-15T12:11:09;26.00;;;11.07;;
31872;SDS011;22407;42.820;23.374;2023-02-15T12:13:39;25.50;;;11.73;;
31872;SDS011;22407;42.820;23.374;2023-02-15T12:16:18;19.50;;;8.77;;
31872;SDS011;22407;42.820;23.374;2023-02-15T12:18:43;22.98;;;9.20;;
31872;SDS011;22407;42.820;23.374;2023-02-15T12:21:11;28.77;;;10.03;;
31872;SDS011;22407;42.820;23.374;2023-02-15T12:23:42;27.10;;;10.80;;
31872;SDS011;22407;42.820;23.374;2023-02-15T12:26:08;29.83;;;10.38;;
31872;SDS011;22407;42.820;23.374;2023-02-15T12:28:44;27.07;;;10.67;;
31872;SDS011;22407;42.820;23.374;2023-02-15T12:31:21;31.48;;;11.75;;
31872;SDS011;22407;42.820;23.374;2023-02-15T12:33:47;25.80;;;10.63;;
31872;SDS011;22407;42.820;23.374;2023-02-15T12:36:47;30.08;;;11.10;;
31872;SDS011;22407;42.820;23.374;2023-02-15T12:41:37;37.17;;;12.97;;
31872;SDS011;22407;42.820;23.374;2023-02-15T12:46:30;29.50;;;11.57;;
31872;SDS011;22407;42.820;23.374;2023-02-15T12:49:06;32.33;;;12.55;;
31872;SDS011;22407;42.820;23.374;2023-02-15T12:51:55;38.22;;;13.43;;
31872;SDS011;22407;42.820;23.374;2023-02-15T12:56:54;25.77;;;9.73;;
31872;SDS011;22407;42.820;23.374;2023-02-15T12:59:19;32.23;;;13.33;;
31872;SDS011;22407;42.820;23.374;2023-02-15T13:01:47;26.73;;;10.10;;
31872;SDS011;22407;42.820;23.374;2023-02-15T13:04:34;26.23;;;10.13;;
31872;SDS011;22407;42.820;23.374;2023-02-15T13:07:00;25.65;;;9.30;;
31872;SDS011;22407;42.820;23.374;2023-02-15T13:11:57;28.67;;;11.30;;
31872;SDS011;22407;42.820;23.374;2023-02-15T13:14:33;25.65;;;10.50;;
31872;SDS011;22407;42.820;23.374;2023-02-15T13:17:00;27.87;;;11.20;;
31872;SDS011;22407;42.820;23.374;2023-02-15T13:21:52;25.30;;;9.53;;
31872;SDS011;22407;42.820;23.374;2023-02-15T13:24:22;31.15;;;10.90;;
31872;SDS011;22407;42.820;23.374;2023-02-15T13:26:48;24.00;;;9.33;;
31872;SDS011;22407;42.820;23.374;2023-02-15T13:29:24;25.27;;;10.25;;
31872;SDS011;22407;42.820;23.374;2023-02-15T13:31:51;28.40;;;11.77;;
31872;SDS011;22407;42.820;23.374;2023-02-15T13:34:22;24.75;;;9.52;;
31872;SDS011;22407;42.820;23.374;2023-02-15T13:36:49;23.30;;;10.43;;
31872;SDS011;22407;42.820;23.374;2023-02-15T13:52:22;23.05;;;10.05;;
31872;SDS011;22407;42.820;23.374;2023-02-15T13:55:06;24.17;;;9.73;;
31872;SDS011;22407;42.820;23.374;2023-02-15T14:08:01;27.00;;;11.30;;
31872;SDS011;22407;42.820;23.374;2023-02-15T14:23:31;22.10;;;9.70;;
31872;SDS011;22407;42.820;23.374;2023-02-15T14:31:07;26.65;;;10.38;;
31872;SDS011;22407;42.820;23.374;2023-02-15T14:33:38;22.20;;;9.90;;
31872;SDS011;22407;42.820;23.374;2023-02-15T14:36:05;28.42;;;10.48;;
31872;SDS011;22407;42.820;23.374;2023-02-15T14:48:46;39.38;;;13.93;;
31872;SDS011;22407;42.820;23.374;2023-02-15T14:53:56;26.95;;;10.80;;
31872;SDS011;22407;42.820;23.374;2023-02-15T14:56:21;30.97;;;11.60;;
31872;SDS011;22407;42.820;23.374;2023-02-15T15:01:16;35.22;;;13.23;;
31872;SDS011;22407;42.820;23.374;2023-02-15T15:03:50;32.07;;;11.90;;
31872;SDS011;22407;42.820;23.374;2023-02-15T15:06:28;27.17;;;10.82;;
31872;SDS011;22407;42.820;23.374;2023-02-15T15:08:55;35.90;;;14.52;;
31872;SDS011;22407;42.820;23.374;2023-02-15T15:13:53;35.92;;;13.65;;
31872;SDS011;22407;42.820;23.374;2023-02-15T15:16:30;37.53;;;14.40;;
31872;SDS011;22407;42.820;23.374;2023-02-15T15:18:56;41.58;;;15.93;;
31872;SDS011;22407;42.820;23.374;2023-02-15T15:24:05;48.70;;;19.47;;
31872;SDS011;22407;42.820;23.374;2023-02-15T15:26:31;34.38;;;14.80;;
31872;SDS011;22407;42.820;23.374;2023-02-15T15:29:02;32.63;;;12.95;;
31872;SDS011;22407;42.820;23.374;2023-02-15T15:36:45;36.58;;;14.98;;
31872;SDS011;22407;42.820;23.374;2023-02-15T15:47:33;44.65;;;18.85;;
31872;SDS011;22407;42.820;23.374;2023-02-15T15:50:04;39.28;;;15.90;;
31872;SDS011;22407;42.820;23.374;2023-02-15T15:52:36;38.95;;;15.57;;
31872;SDS011;22407;42.820;23.374;2023-02-15T15:55:04;39.53;;;15.67;;
31872;SDS011;22407;42.820;23.374;2023-02-15T15:59:56;42.00;;;16.60;;
31872;SDS011;22407;42.820;23.374;2023-02-15T16:02:32;52.33;;;18.65;;
31872;SDS011;22407;42.820;23.374;2023-02-15T16:05:08;72.82;;;29.20;;
31872;SDS011;22407;42.820;23.374;2023-02-15T16:07:33;71.07;;;28.00;;
31872;SDS011;22407;42.820;23.374;2023-02-15T16:10:00;61.33;;;23.43;;
31872;SDS011;22407;42.820;23.374;2023-02-15T16:12:26;39.92;;;16.10;;
31872;SDS011;22407;42.820;23.374;2023-02-15T16:14:52;46.57;;;19.00;;
31872;SDS011;22407;42.820;23.374;2023-02-15T16:17:28;33.92;;;13.68;;
31872;SDS011;22407;42.820;23.374;2023-02-15T16:20:18;36.85;;;13.75;;
31872;SDS011;22407;42.820;23.374;2023-02-15T16:22:48;62.47;;;23.02;;
31872;SDS011;22407;42.820;23.374;2023-02-15T16:25:30;47.78;;;18.40;;
31872;SDS011;22407;42.820;23.374;2023-02-15T16:27:56;42.03;;;14.97;;
31872;SDS011;22407;42.820;23.374;2023-02-15T16:30:23;44.70;;;17.10;;
31872;SDS011;22407;42.820;23.374;2023-02-15T16:32:52;40.60;;;16.57;;
31872;SDS011;22407;42.820;23.374;2023-02-15T16:35:26;38.90;;;14.98;;
31872;SDS011;22407;42.820;23.374;2023-02-15T16:37:51;39.00;;;16.77;;
31872;SDS011;22407;42.820;23.374;2023-02-15T16:42:48;43.22;;;16.73;;
31872;SDS011;22407;42.820;23.374;2023-02-15T16:45:15;30.07;;;11.90;;
31872;SDS011;22407;42.820;23.374;2023-02-15T16:47:43;32.03;;;11.23;;
31872;SDS011;22407;42.820;23.374;2023-02-15T16:50:16;31.90;;;13.35;;
31872;SDS011;22407;42.820;23.374;2023-02-15T16:52:42;43.70;;;15.48;;
31872;SDS011;22407;42.820;23.374;2023-02-15T16:55:17;41.57;;;15.87;;
31872;SDS011;22407;42.820;23.374;2023-02-15T16:57:44;43.80;;;15.82;;